Time;durP1;ratioP1;P1;durP2;ratioP2;P2;SDS_P1;SDS_P2;PMS_P1;PMS_P2;Temp;Humidity;BMP_temperature;BMP_pressure;BME280_temperature;BME280_humidity;BME280_pressure;Samples;Min_cycle;Max_cycle;Signal;HPM_P1;HPM_P2
2023/03/19 10:11:37;;;;;;;12.53;11.93;;;17.90;99.90;;;;;;5127589;27;1262384;-76
2023/03/19 10:14:21;;;;;;;13.83;13.13;;;21.10;92.70;;;;;;5151141;27;20202;-76
2023/03/19 10:16:50;;;;;;;13.70;13.10;;;21.30;92.00;;;;;;5151042;27;20994;-76
2023/03/19 10:19:20;;;;;;;12.50;11.90;;;21.50;90.50;;;;;;5150814;27;20804;-76
2023/03/19 10:21:54;;;;;;;12.00;11.50;;;21.30;90.10;;;;;;5150982;27;20444;-76
2023/03/19 10:24:24;;;;;;;13.30;12.70;;;21.10;89.20;;;;;;5150794;27;20485;-75
2023/03/19 10:26:59;;;;;;;12.27;11.77;;;21.40;88.30;;;;;;5150733;27;20534;-76
2023/03/19 10:29:27;;;;;;;12.00;11.30;;;21.10;87.90;;;;;;5150837;27;20515;-76
2023/03/19 10:32:02;;;;;;;11.70;11.10;;;20.80;89.50;;;;;;5150605;27;20862;-75
2023/03/19 10:34:34;;;;;;;12.47;11.83;;;20.90;87.80;;;;;;5150730;27;20451;-77
2023/03/19 10:37:04;;;;;;;12.80;12.30;;;22.20;86.30;;;;;;5150810;27;20550;-76
2023/03/19 10:39:35;;;;;;;12.53;11.70;;;23.00;81.60;;;;;;5150670;27;20439;-77
2023/03/19 10:42:24;;;;;;;12.70;12.07;;;22.00;83.10;;;;;;5150583;27;20475;-76
2023/03/19 10:44:56;;;;;;;12.00;11.40;;;21.80;83.10;;;;;;5150775;27;20508;-76
2023/03/19 10:47:26;;;;;;;12.20;11.50;;;22.00;83.60;;;;;;5150496;27;20478;-77
2023/03/19 10:49:55;;;;;;;12.60;12.00;;;22.40;84.70;;;;;;5150389;27;20483;-77
2023/03/19 10:52:24;;;;;;;12.53;11.90;;;23.00;80.60;;;;;;5150213;27;20447;-77
2023/03/19 10:54:55;;;;;;;12.10;11.60;;;23.10;77.80;;;;;;5150061;27;20958;-75
2023/03/19 10:57:26;;;;;;;12.07;11.50;;;22.90;76.90;;;;;;5150335;27;20485;-77
2023/03/19 10:59:53;;;;;;;13.23;12.60;;;23.10;76.20;;;;;;5150245;27;20447;-76
2023/03/19 11:02:22;;;;;;;12.33;11.73;;;23.10;75.00;;;;;;5149856;27;20899;-76
2023/03/19 11:04:49;;;;;;;12.50;11.90;;;22.90;72.10;;;;;;5150004;27;20479;-77
2023/03/19 11:07:20;;;;;;;12.50;12.00;;;22.30;72.70;;;;;;5141033;27;20464;-76
2023/03/19 11:09:49;;;;;;;11.27;10.80;;;21.60;72.70;;;;;;5108584;28;20504;-76
2023/03/19 11:12:19;;;;;;;12.70;12.10;;;20.60;74.90;;;;;;5094341;28;20449;-76
2023/03/19 11:14:49;;;;;;;13.00;12.40;;;20.60;76.90;;;;;;5094922;28;20451;-75
2023/03/19 11:17:21;;;;;;;12.23;11.53;;;21.40;74.30;;;;;;5094969;28;20485;-76
2023/03/19 11:19:52;;;;;;;11.50;11.00;;;22.30;69.70;;;;;;5094917;28;20534;-76
2023/03/19 11:22:21;;;;;;;12.20;11.60;;;22.80;67.00;;;;;;5094700;28;20446;-75
2023/03/19 11:24:51;;;;;;;13.57;12.77;;;22.80;67.10;;;;;;5094832;28;20965;-76
2023/03/19 11:27:19;;;;;;;12.27;11.70;;;22.70;66.30;;;;;;5094953;28;20542;-76
2023/03/19 11:29:47;;;;;;;10.70;10.17;;;22.50;67.10;;;;;;5094497;28;21000;-74
2023/03/19 11:32:33;;;;;;;11.50;11.10;;;22.70;66.40;;;;;;5094594;28;20859;-75
2023/03/19 11:35:03;;;;;;;12.57;11.87;;;22.80;66.50;;;;;;5094527;28;20446;-75
2023/03/19 11:37:45;;;;;;;12.27;11.77;;;23.20;65.60;;;;;;5094642;28;20450;-76
2023/03/19 11:40:19;;;;;;;10.57;9.97;;;23.50;65.20;;;;;;5094513;28;20477;-74
2023/03/19 11:43:03;;;;;;;11.83;11.03;;;23.20;63.90;;;;;;5094395;28;20449;-75
2023/03/19 11:45:35;;;;;;;12.30;11.80;;;22.10;66.40;;;;;;5094495;28;20454;-75
2023/03/19 11:48:19;;;;;;;12.20;11.70;;;21.70;67.70;;;;;;5094426;28;20964;-77
2023/03/19 11:50:51;;;;;;;12.80;12.20;;;21.80;68.50;;;;;;5094174;28;21027;-75
2023/03/19 11:53:23;;;;;;;11.17;10.57;;;21.80;68.30;;;;;;5094248;28;20489;-76
2023/03/19 11:56:00;;;;;;;11.00;10.53;;;22.20;67.80;;;;;;5094240;28;20457;-76
2023/03/19 11:58:59;;;;;;;12.43;11.83;;;23.10;66.30;;;;;;5094262;28;20480;-76
2023/03/19 12:01:48;;;;;;;12.40;11.80;;;23.10;63.70;;;;;;5094265;28;20452;-77
2023/03/19 12:04:52;;;;;;;10.80;10.30;;;22.20;64.50;;;;;;5094102;28;20944;-75
2023/03/19 12:07:27;;;;;;;10.80;10.20;;;21.30;66.70;;;;;;5095865;27;21477;-75
2023/03/19 12:10:07;;;;;;;12.50;12.10;;;21.10;67.00;;;;;;5109333;28;20918;-75
2023/03/19 12:12:38;;;;;;;12.27;11.57;;;21.50;66.40;;;;;;5114384;28;20449;-75
2023/03/19 12:15:14;;;;;;;11.17;10.63;;;22.10;65.30;;;;;;5110655;28;20446;-76
2023/03/19 12:18:03;;;;;;;11.10;10.70;;;22.80;64.60;;;;;;5113480;28;20456;-75
2023/03/19 12:20:37;;;;;;;11.00;10.50;;;22.90;62.30;;;;;;5113172;28;20855;-76
2023/03/19 12:23:15;;;;;;;10.43;9.97;;;22.50;63.30;;;;;;5113314;28;20460;-76
2023/03/19 12:25:52;;;;;;;10.90;10.20;;;22.30;63.50;;;;;;5114207;28;21015;-76
2023/03/19 12:28:26;;;;;;;10.83;10.43;;;21.90;63.90;;;;;;5114183;28;20971;-76
2023/03/19 12:31:05;;;;;;;10.30;9.83;;;21.90;64.30;;;;;;5114054;28;20492;-75
2023/03/19 12:33:44;;;;;;;12.40;11.90;;;21.60;65.10;;;;;;5114041;28;20529;-75
2023/03/19 12:36:17;;;;;;;10.90;10.43;;;21.70;65.30;;;;;;5113939;28;20451;-75
2023/03/19 12:38:47;;;;;;;11.47;10.93;;;22.00;65.40;;;;;;5113809;28;20445;-75
2023/03/19 12:41:21;;;;;;;10.20;9.40;;;22.30;64.20;;;;;;5113841;28;20441;-75
2023/03/19 12:43:54;;;;;;;10.90;10.30;;;22.30;64.40;;;;;;5114032;28;20992;-77
2023/03/19 12:46:27;;;;;;;11.00;10.50;;;22.30;63.50;;;;;;5114074;28;20441;-76
2023/03/19 12:49:00;;;;;;;11.27;10.50;;;21.90;65.50;;;;;;5113520;28;20842;-76
2023/03/19 12:51:32;;;;;;;11.00;10.50;;;21.90;65.80;;;;;;5113452;28;20485;-76
2023/03/19 12:54:05;;;;;;;11.70;11.13;;;22.40;65.50;;;;;;5113563;28;20490;-76
2023/03/19 12:56:39;;;;;;;12.50;11.90;;;22.60;64.20;;;;;;5113685;28;20445;-76
2023/03/19 12:59:15;;;;;;;11.47;10.87;;;22.90;63.60;;;;;;5113635;28;20456;-76
2023/03/19 13:01:44;;;;;;;11.70;11.20;;;23.40;62.00;;;;;;5113615;28;20445;-75
2023/03/19 13:04:17;;;;;;;10.87;10.27;;;23.60;62.20;;;;;;5113430;28;20460;-76
2023/03/19 13:06:49;;;;;;;12.07;11.37;;;23.20;62.20;;;;;;5113427;28;20507;-76
2023/03/19 13:09:27;;;;;;;11.10;10.60;;;22.60;63.90;;;;;;5112761;28;20477;-77
2023/03/19 13:11:58;;;;;;;11.17;10.77;;;22.20;64.40;;;;;;5113403;28;20457;-76
2023/03/19 13:14:32;;;;;;;11.40;10.90;;;21.90;64.40;;;;;;5113389;28;20484;-76
2023/03/19 13:17:05;;;;;;;11.50;10.97;;;21.10;67.80;;;;;;5113230;28;20940;-75
2023/03/19 13:19:43;;;;;;;13.33;12.43;;;20.30;71.80;;;;;;5113208;28;20449;-76
2023/03/19 13:22:13;;;;;;;11.60;11.20;;;19.60;75.00;;;;;;5113314;28;20457;-76
2023/03/19 13:24:43;;;;;;;11.33;10.93;;;19.00;78.30;;;;;;5113059;28;20472;-76
2023/03/19 13:27:15;;;;;;;12.03;11.33;;;18.50;83.90;;;;;;5112985;28;20494;-74
2023/03/19 13:29:56;;;;;;;18.57;17.87;;;18.00;92.20;;;;;;5113168;28;20492;-72
2023/03/19 13:32:26;;;;;;;27.60;26.20;;;17.30;99.90;;;;;;5112892;28;20473;-75
2023/03/19 13:35:12;;;;;;;29.50;28.10;;;16.50;99.90;;;;;;5112568;28;20446;-76
2023/03/19 13:37:42;;;;;;;31.07;29.57;;;15.60;99.90;;;;;;5112681;28;20445;-74
2023/03/19 13:40:38;;;;;;;30.37;28.97;;;15.20;99.90;;;;;;5112773;28;20441;-75
2023/03/19 13:43:19;;;;;;;29.80;28.50;;;15.10;99.90;;;;;;5112920;28;20488;-75
2023/03/19 13:45:52;;;;;;;24.63;23.53;;;15.00;99.90;;;;;;5112698;28;20452;-76
2023/03/19 13:48:36;;;;;;;19.03;18.13;;;15.00;99.90;;;;;;5112810;28;20480;-75
2023/03/19 13:51:22;;;;;;;14.60;13.73;;;15.30;99.90;;;;;;5112478;28;20557;-76
2023/03/19 13:53:53;;;;;;;14.10;13.50;;;15.50;99.90;;;;;;5112897;28;20813;-76
2023/03/19 13:56:22;;;;;;;13.30;12.50;;;16.00;99.90;;;;;;5112587;28;20952;-75
2023/03/19 13:58:55;;;;;;;13.50;12.73;;;16.40;99.90;;;;;;5112681;28;20449;-75
2023/03/19 14:01:43;;;;;;;11.77;11.27;;;16.70;99.90;;;;;;5112607;28;20884;-76
2023/03/19 14:04:20;;;;;;;12.03;11.53;;;17.00;99.90;;;;;;5112665;28;20830;-77
2023/03/19 14:06:51;;;;;;;13.60;12.90;;;17.00;99.90;;;;;;5112607;28;20459;-77
2023/03/19 14:09:38;;;;;;;12.20;11.50;;;17.20;99.90;;;;;;5112381;28;20889;-76
2023/03/19 14:12:11;;;;;;;12.13;11.43;;;17.20;99.90;;;;;;5112417;28;20449;-76
2023/03/19 14:14:44;;;;;;;11.53;11.10;;;17.10;99.90;;;;;;5112456;28;20452;-76
2023/03/19 14:17:16;;;;;;;17.17;16.47;;;17.00;99.90;;;;;;5112521;28;20450;-74
2023/03/19 14:19:43;;;;;;;33.27;31.27;;;16.50;99.90;;;;;;5112338;28;20861;-73
2023/03/19 14:22:20;;;;;;;35.47;33.07;;;16.10;99.90;;;;;;5112383;28;20452;-76
2023/03/19 14:24:55;;;;;;;38.57;36.20;;;15.80;99.90;;;;;;5112384;28;20448;-79
2023/03/19 14:27:28;;;;;;;40.50;37.90;;;15.30;99.90;;;;;;5112383;28;20510;-77
2023/03/19 14:29:56;;;;;;;42.70;39.90;;;15.30;99.90;;;;;;5112369;28;20460;-76
2023/03/19 14:32:31;;;;;;;37.80;35.37;;;15.10;99.90;;;;;;5112303;28;20445;-78
2023/03/19 14:34:58;;;;;;;38.50;36.30;;;15.20;99.90;;;;;;5112255;28;20449;-76
2023/03/19 14:37:34;;;;;;;33.57;31.87;;;15.10;99.90;;;;;;5112210;28;20453;-76
2023/03/19 14:40:09;;;;;;;34.60;32.80;;;14.90;99.90;;;;;;5112067;28;20487;-76
2023/03/19 14:42:42;;;;;;;28.80;27.60;;;14.80;99.90;;;;;;5112275;28;20453;-76
2023/03/19 14:45:38;;;;;;;23.87;22.87;;;14.70;99.90;;;;;;5112328;28;20521;-76
2023/03/19 14:48:19;;;;;;;23.40;22.03;;;14.70;99.90;;;;;;5116129;28;20437;-76
2023/03/19 14:51:11;;;;;;;23.50;22.23;;;14.80;99.90;;;;;;5115988;28;20481;-76
2023/03/19 14:53:44;;;;;;;23.30;22.20;;;15.00;99.90;;;;;;5116091;28;20449;-76
2023/03/19 14:56:14;;;;;;;23.70;22.80;;;15.30;99.90;;;;;;5116066;28;20445;-76
2023/03/19 14:58:52;;;;;;;21.17;20.20;;;15.70;99.90;;;;;;5115906;28;20536;-75
2023/03/19 15:01:20;;;;;;;18.53;17.83;;;16.00;99.90;;;;;;5115831;28;20445;-76
2023/03/19 15:03:53;;;;;;;19.63;18.77;;;16.00;99.90;;;;;;5115886;28;20518;-76
2023/03/19 15:06:20;;;;;;;20.47;19.17;;;16.10;99.90;;;;;;5115807;28;20476;-75
2023/03/19 15:08:49;;;;;;;18.20;17.30;;;16.10;99.90;;;;;;5115504;28;20500;-76
2023/03/19 15:11:32;;;;;;;17.30;16.40;;;16.10;99.90;;;;;;5115379;28;20598;-77
2023/03/19 15:14:23;;;;;;;17.07;16.37;;;16.20;99.90;;;;;;5115613;28;20445;-76
2023/03/19 15:17:01;;;;;;;15.87;15.17;;;16.30;99.90;;;;;;5115480;28;20445;-76
2023/03/19 15:19:32;;;;;;;15.93;15.23;;;16.20;99.90;;;;;;5115646;28;20445;-76
2023/03/19 15:22:10;;;;;;;14.73;14.10;;;16.10;99.90;;;;;;5115606;28;20449;-76
2023/03/19 15:24:38;;;;;;;12.83;12.20;;;16.00;99.90;;;;;;5115456;28;20460;-76
2023/03/19 15:27:19;;;;;;;13.80;13.00;;;15.80;99.90;;;;;;5115339;28;20458;-76
2023/03/19 15:29:46;;;;;;;13.50;12.80;;;15.70;99.90;;;;;;5115195;28;20441;-75
2023/03/19 15:32:13;;;;;;;13.27;12.20;;;15.60;99.90;;;;;;5115154;28;21019;-76
2023/03/19 15:34:41;;;;;;;13.63;13.03;;;15.70;99.90;;;;;;5115131;28;20955;-75
2023/03/19 15:37:11;;;;;;;14.13;13.53;;;15.80;99.90;;;;;;5115157;28;20449;-75
2023/03/19 15:39:45;;;;;;;12.97;12.37;;;15.80;99.90;;;;;;5115083;28;20480;-76
2023/03/19 15:42:12;;;;;;;13.47;12.77;;;15.80;99.90;;;;;;5115160;28;20444;-75
2023/03/19 15:44:43;;;;;;;12.97;12.27;;;15.80;99.90;;;;;;5115022;28;20506;-75
2023/03/19 15:47:16;;;;;;;12.50;12.00;;;15.80;99.90;;;;;;5114948;28;20807;-75
2023/03/19 15:49:48;;;;;;;12.30;11.80;;;15.50;99.90;;;;;;5114956;28;20460;-74
2023/03/19 15:52:18;;;;;;;13.27;12.67;;;15.50;99.90;;;;;;5114720;28;20489;-75
2023/03/19 15:54:46;;;;;;;12.27;11.67;;;15.40;99.90;;;;;;5114682;28;20456;-75
2023/03/19 15:57:15;;;;;;;12.80;11.97;;;15.30;99.90;;;;;;5114837;28;20455;-76
2023/03/19 15:59:42;;;;;;;11.37;10.87;;;15.30;99.90;;;;;;5114916;28;20449;-74
2023/03/19 16:02:18;;;;;;;13.23;12.43;;;15.40;99.90;;;;;;5114784;28;20594;-75
2023/03/19 16:04:45;;;;;;;12.00;11.30;;;15.30;99.90;;;;;;5114758;28;20959;-75
2023/03/19 16:07:24;;;;;;;10.50;9.93;;;15.10;99.90;;;;;;5114737;28;20524;-75
2023/03/19 16:09:52;;;;;;;11.50;10.90;;;15.10;99.90;;;;;;5114428;28;20496;-75
2023/03/19 16:12:39;;;;;;;11.37;10.87;;;15.00;99.90;;;;;;5114348;28;20508;-74
2023/03/19 16:15:23;;;;;;;11.20;10.40;;;14.80;99.90;;;;;;5114488;28;20448;-74
2023/03/19 16:17:50;;;;;;;13.07;12.30;;;14.70;99.90;;;;;;5114484;28;20445;-76
2023/03/19 16:20:17;;;;;;;13.70;13.10;;;14.70;99.90;;;;;;5114448;28;20480;-75
2023/03/19 16:22:53;;;;;;;28.23;26.50;;;14.50;99.90;;;;;;5114041;28;20453;-72
2023/03/19 16:25:24;;;;;;;38.17;36.07;;;14.20;99.90;;;;;;5114209;28;20445;-74
2023/03/19 16:27:52;;;;;;;38.17;35.97;;;13.80;99.90;;;;;;5113975;28;20477;-76
2023/03/19 16:30:21;;;;;;;36.67;34.67;;;13.40;99.90;;;;;;5113760;28;20797;-76
2023/03/19 16:32:58;;;;;;;37.07;34.40;;;13.10;99.90;;;;;;5113955;28;20795;-76
2023/03/19 16:35:25;;;;;;;38.33;35.97;;;12.90;99.90;;;;;;5114057;28;20445;-76
2023/03/19 16:37:53;;;;;;;38.80;36.50;;;12.80;99.90;;;;;;5113791;28;20445;-76
2023/03/19 16:40:41;;;;;;;37.10;34.90;;;12.60;99.90;;;;;;5114018;28;20476;-76
2023/03/19 16:43:16;;;;;;;37.27;34.70;;;12.50;99.90;;;;;;5113961;28;20484;-75
2023/03/19 16:45:43;;;;;;;38.47;36.17;;;12.30;99.90;;;;;;5113823;28;20939;-76
2023/03/19 16:48:10;;;;;;;39.23;36.83;;;12.30;99.90;;;;;;5113533;28;20453;-75
2023/03/19 16:50:38;;;;;;;37.30;35.10;;;12.20;99.90;;;;;;5113663;28;20925;-75
2023/03/19 16:53:10;;;;;;;36.77;34.57;;;12.20;99.90;;;;;;5113600;28;20465;-77
2023/03/19 16:55:38;;;;;;;35.87;33.50;;;12.20;99.90;;;;;;5113765;28;20874;-76
2023/03/19 16:58:11;;;;;;;37.37;35.00;;;12.10;99.90;;;;;;5113675;28;20449;-76
2023/03/19 17:00:39;;;;;;;40.33;37.93;;;12.10;99.90;;;;;;5113582;28;20815;-76
2023/03/19 17:03:12;;;;;;;41.07;38.47;;;12.00;99.90;;;;;;5113518;28;20456;-76
2023/03/19 17:05:38;;;;;;;34.23;32.23;;;11.90;99.90;;;;;;5113535;28;20457;-75
2023/03/19 17:08:05;;;;;;;35.90;33.80;;;11.80;99.90;;;;;;5112970;28;20488;-77
2023/03/19 17:10:32;;;;;;;36.57;34.33;;;11.70;99.90;;;;;;5112954;28;20942;-79
2023/03/19 17:13:01;;;;;;;35.80;33.80;;;11.60;99.90;;;;;;5113220;28;20944;-78
2023/03/19 17:15:31;;;;;;;35.00;32.90;;;11.50;99.90;;;;;;5113292;28;20453;-77
2023/03/19 17:17:59;;;;;;;35.53;33.43;;;11.50;99.90;;;;;;5113257;28;20955;-77
2023/03/19 17:20:30;;;;;;;33.50;31.23;;;11.50;99.90;;;;;;5113281;28;20820;-78
2023/03/19 17:22:57;;;;;;;32.40;30.60;;;11.60;99.90;;;;;;5113037;28;20456;-78
2023/03/19 17:25:24;;;;;;;34.77;32.73;;;11.70;99.90;;;;;;5113047;28;20940;-78
2023/03/19 17:27:51;;;;;;;33.20;31.10;;;11.60;99.90;;;;;;5112983;28;20952;-77
2023/03/19 17:30:19;;;;;;;34.23;32.33;;;11.60;99.90;;;;;;5113040;28;20445;-78
2023/03/19 17:32:49;;;;;;;32.93;30.93;;;11.60;99.90;;;;;;5112909;28;20491;-77
2023/03/19 17:35:18;;;;;;;35.27;33.17;;;11.50;99.90;;;;;;5112942;28;20947;-78
2023/03/19 17:37:46;;;;;;;35.50;33.37;;;11.60;99.90;;;;;;5112962;28;20498;-76
2023/03/19 17:40:20;;;;;;;33.37;31.43;;;11.50;99.90;;;;;;5112982;28;20441;-78
2023/03/19 17:42:47;;;;;;;34.33;32.37;;;11.50;99.90;;;;;;5113009;28;20480;-77
2023/03/19 17:45:15;;;;;;;33.47;31.57;;;11.50;99.90;;;;;;5112953;28;20824;-77
2023/03/19 17:47:44;;;;;;;37.73;35.53;;;11.60;99.90;;;;;;5112833;28;20873;-77
2023/03/19 17:50:17;;;;;;;38.03;35.40;;;11.60;99.90;;;;;;5112776;28;20453;-77
2023/03/19 17:52:45;;;;;;;37.23;35.20;;;11.60;99.90;;;;;;5112602;28;21031;-77
2023/03/19 17:55:15;;;;;;;34.50;32.30;;;11.60;99.90;;;;;;5112832;28;20536;-78
2023/03/19 17:57:42;;;;;;;36.37;34.17;;;11.60;99.90;;;;;;5112768;28;20536;-75
